createdAt,value
2018-11-07T00:02:11.517Z,999.90
2018-11-07T00:04:39.445Z,999.90
2018-11-07T00:07:07.307Z,999.90
2018-11-07T00:09:35.179Z,999.90
2018-11-07T00:12:03.031Z,999.90
2018-11-07T00:14:30.883Z,999.90
2018-11-07T00:16:58.742Z,999.90
2018-11-07T00:19:26.618Z,999.90
2018-11-07T00:21:54.495Z,999.90
2018-11-07T00:24:22.459Z,999.90
2018-11-07T00:26:50.314Z,999.90
2018-11-07T00:29:18.176Z,999.90
2018-11-07T00:31:46.042Z,999.90
2018-11-07T00:34:14.124Z,999.90
2018-11-07T00:36:41.998Z,999.90
2018-11-07T00:39:10.419Z,999.90
2018-11-07T00:41:38.311Z,999.90
2018-11-07T00:44:06.358Z,999.90
2018-11-07T00:46:34.226Z,999.90
2018-11-07T00:49:02.175Z,999.90
2018-11-07T00:51:30.384Z,999.90
2018-11-07T00:53:58.235Z,999.90
2018-11-07T00:56:26.113Z,999.90
2018-11-07T00:58:54.091Z,999.90
2018-11-07T01:01:21.975Z,999.90
2018-11-07T01:03:49.855Z,999.90
2018-11-07T01:06:17.723Z,999.90
2018-11-07T01:08:45.590Z,999.90
2018-11-07T01:11:13.486Z,999.90
2018-11-07T01:13:41.360Z,999.90
2018-11-07T01:16:09.225Z,999.90
2018-11-07T01:18:37.178Z,999.90
2018-11-07T01:21:05.131Z,999.90
2018-11-07T01:23:33.243Z,999.90
2018-11-07T01:26:01.115Z,999.90
2018-11-07T01:28:28.985Z,999.90
2018-11-07T01:30:56.851Z,999.90
2018-11-07T01:33:24.702Z,999.90
2018-11-07T01:35:52.556Z,999.90
2018-11-07T01:38:20.591Z,999.90
2018-11-07T01:40:48.463Z,999.90
2018-11-07T01:43:16.361Z,999.90
2018-11-07T01:45:44.211Z,999.90
2018-11-07T01:48:12.075Z,999.90
2018-11-07T01:50:40.023Z,999.90
2018-11-07T01:53:07.887Z,999.90
2018-11-07T01:55:35.750Z,999.90
2018-11-07T01:58:03.610Z,999.90
2018-11-07T02:00:31.483Z,999.90
2018-11-07T02:02:59.344Z,999.90
2018-11-07T02:05:27.214Z,999.90
2018-11-07T02:07:55.094Z,999.90
2018-11-07T02:10:22.955Z,999.90
2018-11-07T02:12:50.819Z,999.90
2018-11-07T02:15:18.694Z,999.90
2018-11-07T02:17:46.551Z,999.90
2018-11-07T02:20:14.394Z,999.90
2018-11-07T02:22:42.292Z,999.90
2018-11-07T02:25:10.175Z,999.90
2018-11-07T02:27:38.300Z,999.90
2018-11-07T02:30:07.759Z,999.90
2018-11-07T02:32:35.606Z,999.90
2018-11-07T02:35:03.514Z,999.90
2018-11-07T02:37:31.368Z,999.90
2018-11-07T02:39:59.264Z,999.90
2018-11-07T02:42:27.110Z,999.90
2018-11-07T02:44:54.957Z,999.90
2018-11-07T02:47:22.824Z,999.90
2018-11-07T02:49:50.703Z,999.90
2018-11-07T02:52:18.563Z,999.90
2018-11-07T02:54:46.427Z,999.90
2018-11-07T02:57:15.463Z,999.90
2018-11-07T02:59:43.785Z,999.90
2018-11-07T03:02:12.869Z,999.90
2018-11-07T03:04:41.849Z,999.90
2018-11-07T03:07:10.968Z,999.90
2018-11-07T03:09:39.902Z,999.90
2018-11-07T03:12:09.076Z,999.90
2018-11-07T03:14:39.668Z,999.90
2018-11-07T03:17:08.698Z,999.90
2018-11-07T03:19:37.542Z,999.90
2018-11-07T03:22:06.019Z,999.90
2018-11-07T03:24:34.001Z,999.90
2018-11-07T03:27:02.041Z,999.90
2018-11-07T03:29:30.206Z,999.90
2018-11-07T03:31:58.530Z,999.90
2018-11-07T03:34:26.605Z,999.90
2018-11-07T03:36:54.626Z,999.90
2018-11-07T03:39:22.615Z,999.90
2018-11-07T03:41:51.454Z,999.90
2018-11-07T03:44:20.172Z,943.83
2018-11-07T03:46:48.137Z,999.90
2018-11-07T03:49:16.138Z,990.13
2018-11-07T03:51:44.316Z,929.43
2018-11-07T03:54:12.645Z,905.87
2018-11-07T03:56:40.632Z,891.37
2018-11-07T03:59:09.310Z,945.17
2018-11-07T04:01:37.847Z,994.70
2018-11-07T04:04:06.883Z,999.90
2018-11-07T04:06:35.797Z,999.90
2018-11-07T04:09:06.129Z,999.90
2018-11-07T04:11:34.221Z,999.90
2018-11-07T04:14:02.888Z,999.90
2018-11-07T04:16:31.361Z,999.90
2018-11-07T04:18:59.291Z,999.90
2018-11-07T04:21:27.238Z,999.90
2018-11-07T04:24:01.528Z,999.90
2018-11-07T04:26:30.497Z,999.90
2018-11-07T04:28:58.624Z,999.90
2018-11-07T04:31:26.914Z,948.23
2018-11-07T04:33:54.869Z,971.07
2018-11-07T04:36:24.356Z,960.53
2018-11-07T04:38:52.622Z,972.77
2018-11-07T04:41:20.772Z,976.20
2018-11-07T04:43:48.975Z,988.70
2018-11-07T04:46:17.810Z,958.53
2018-11-07T04:48:45.709Z,981.97
2018-11-07T04:51:14.079Z,975.53
2018-11-07T04:53:41.966Z,953.80
2018-11-07T04:56:09.871Z,944.63
2018-11-07T04:58:37.726Z,951.43
2018-11-07T05:01:06.063Z,955.33
2018-11-07T05:03:33.975Z,946.10
2018-11-07T05:06:01.828Z,923.27
2018-11-07T05:08:29.758Z,940.80
2018-11-07T05:10:57.557Z,944.83
2018-11-07T05:13:25.407Z,934.13
2018-11-07T05:15:53.245Z,949.27
2018-11-07T05:18:21.441Z,938.33
2018-11-07T05:20:49.313Z,915.33
2018-11-07T05:23:17.167Z,930.70
2018-11-07T05:25:45.116Z,927.70
2018-11-07T05:28:12.975Z,935.43
2018-11-07T05:30:40.852Z,908.87
2018-11-07T05:33:08.713Z,906.07
2018-11-07T05:35:36.564Z,905.07
2018-11-07T05:38:04.432Z,900.47
2018-11-07T05:40:32.371Z,871.60
2018-11-07T05:43:00.219Z,877.37
2018-11-07T05:45:28.073Z,890.57
2018-11-07T05:47:55.923Z,898.27
2018-11-07T05:50:23.767Z,899.40
2018-11-07T05:52:51.711Z,909.03
2018-11-07T05:55:19.697Z,971.50
2018-11-07T05:57:47.558Z,915.90
2018-11-07T06:00:15.431Z,891.93
2018-11-07T06:02:43.291Z,922.83
2018-11-07T06:05:11.931Z,862.00
2018-11-07T06:07:40.182Z,919.20
2018-11-07T06:10:09.316Z,891.80
2018-11-07T06:12:37.579Z,917.67
2018-11-07T06:15:05.795Z,886.80
2018-11-07T06:17:33.667Z,931.20
2018-11-07T06:20:01.547Z,922.50
2018-11-07T06:22:29.401Z,911.33
2018-11-07T06:24:57.335Z,919.43
2018-11-07T06:27:25.099Z,917.70
2018-11-07T06:29:53.098Z,916.07
2018-11-07T06:32:20.939Z,890.50
2018-11-07T06:34:48.794Z,886.77
2018-11-07T06:37:16.668Z,912.83
2018-11-07T06:39:44.515Z,941.90
2018-11-07T06:42:12.391Z,914.43
2018-11-07T06:44:40.258Z,906.20
2018-11-07T06:47:08.124Z,962.70
2018-11-07T06:49:35.977Z,867.53
2018-11-07T06:52:03.843Z,899.43
2018-11-07T06:54:31.695Z,914.70
2018-11-07T06:56:59.532Z,913.03
2018-11-07T06:59:27.425Z,861.30
2018-11-07T07:01:55.279Z,864.73
2018-11-07T07:04:23.159Z,929.60
2018-11-07T07:06:51.014Z,869.60
2018-11-07T07:09:18.890Z,879.13
2018-11-07T07:11:46.758Z,861.23
2018-11-07T07:14:14.601Z,859.67
2018-11-07T07:16:42.490Z,880.80
2018-11-07T07:19:10.329Z,825.63
2018-11-07T07:21:38.206Z,862.37
2018-11-07T07:24:06.084Z,874.40
2018-11-07T07:26:33.962Z,880.50
2018-11-07T07:29:01.806Z,839.20
2018-11-07T07:31:29.672Z,889.43
2018-11-07T07:33:57.534Z,866.33
2018-11-07T07:36:25.387Z,855.37
2018-11-07T07:38:53.251Z,861.17
2018-11-07T07:41:21.138Z,889.63
2018-11-07T07:43:48.995Z,914.47
2018-11-07T07:46:16.877Z,884.00
2018-11-07T07:48:44.718Z,892.27
2018-11-07T07:51:12.577Z,870.30
2018-11-07T07:53:40.504Z,881.57
2018-11-07T07:56:08.390Z,889.47
2018-11-07T07:58:36.254Z,934.53
2018-11-07T08:01:04.109Z,910.67
2018-11-07T08:03:31.976Z,913.63
2018-11-07T08:05:59.839Z,907.90
2018-11-07T08:08:27.708Z,924.83
2018-11-07T08:10:55.588Z,916.57
2018-11-07T08:13:23.464Z,931.47
2018-11-07T08:15:51.311Z,926.50
2018-11-07T08:18:19.159Z,942.33
2018-11-07T08:20:47.019Z,980.33
2018-11-07T08:23:14.858Z,988.97
2018-11-07T08:25:42.738Z,923.53
2018-11-07T08:28:10.595Z,969.27
2018-11-07T08:30:38.512Z,921.07
2018-11-07T08:33:06.348Z,909.60
2018-11-07T08:35:34.260Z,937.20
2018-11-07T08:38:02.115Z,912.77
2018-11-07T08:40:29.955Z,931.73
2018-11-07T08:42:57.829Z,971.83
2018-11-07T08:45:25.670Z,980.73
2018-11-07T08:47:53.551Z,986.33
2018-11-07T08:50:21.836Z,990.13
2018-11-07T08:52:49.988Z,989.43
2018-11-07T08:55:19.206Z,988.37
2018-11-07T08:57:47.060Z,940.27
2018-11-07T09:00:17.067Z,942.73
2018-11-07T09:02:45.270Z,894.33
2018-11-07T09:05:13.755Z,952.33
2018-11-07T09:07:42.336Z,935.43
2018-11-07T09:10:12.370Z,949.43
2018-11-07T09:12:40.349Z,960.60
2018-11-07T09:15:10.640Z,963.53
2018-11-07T09:17:38.556Z,971.63
2018-11-07T09:20:07.142Z,999.90
2018-11-07T09:22:34.999Z,966.33
2018-11-07T09:25:02.876Z,992.33
2018-11-07T09:27:30.737Z,998.47
2018-11-07T09:29:58.613Z,986.50
2018-11-07T09:32:26.476Z,995.53
2018-11-07T09:34:54.323Z,999.90
2018-11-07T09:37:22.566Z,999.90
2018-11-07T09:39:50.469Z,999.90
2018-11-07T09:42:18.262Z,999.90
2018-11-07T09:44:46.121Z,999.20
2018-11-07T09:47:13.992Z,999.90
2018-11-07T09:49:41.823Z,999.90
2018-11-07T09:52:09.688Z,999.90
2018-11-07T09:54:37.539Z,999.90
2018-11-07T09:57:05.403Z,999.87
2018-11-07T09:59:33.338Z,997.53
2018-11-07T10:02:01.156Z,999.90
2018-11-07T10:04:29.008Z,999.90
2018-11-07T10:06:56.895Z,996.33
2018-11-07T10:09:24.737Z,999.90
2018-11-07T10:11:52.615Z,998.17
2018-11-07T10:14:20.484Z,985.40
2018-11-07T10:16:48.357Z,999.90
2018-11-07T10:19:16.344Z,999.90
2018-11-07T10:21:44.276Z,999.90
2018-11-07T10:24:12.522Z,999.90
2018-11-07T10:26:40.462Z,999.90
2018-11-07T10:29:08.447Z,999.90
2018-11-07T10:31:36.276Z,999.90
2018-11-07T10:34:04.131Z,999.90
2018-11-07T10:36:31.970Z,999.90
2018-11-07T10:38:59.908Z,999.90
2018-11-07T10:41:27.772Z,999.90
2018-11-07T10:43:55.737Z,999.90
2018-11-07T10:46:23.831Z,999.90
2018-11-07T10:48:51.681Z,999.90
2018-11-07T10:51:19.794Z,999.90
2018-11-07T10:53:47.643Z,999.90
2018-11-07T10:56:15.495Z,999.90
2018-11-07T10:58:43.409Z,999.90
2018-11-07T11:01:11.391Z,999.90
2018-11-07T11:03:39.253Z,999.90
2018-11-07T11:06:07.112Z,999.90
2018-11-07T11:08:34.979Z,999.90
2018-11-07T11:11:02.873Z,999.90
2018-11-07T11:13:30.731Z,999.90
2018-11-07T11:15:58.626Z,999.90
2018-11-07T11:18:26.496Z,999.90
2018-11-07T11:20:54.379Z,999.90
2018-11-07T11:23:22.340Z,999.90
2018-11-07T11:25:50.208Z,999.90
2018-11-07T11:28:18.107Z,999.90
2018-11-07T11:30:45.965Z,999.90
2018-11-07T11:33:13.896Z,999.90
2018-11-07T11:35:41.745Z,999.90
2018-11-07T11:38:09.604Z,999.90
2018-11-07T11:40:37.517Z,999.90
2018-11-07T11:43:05.339Z,999.90
2018-11-07T11:45:33.205Z,999.90
2018-11-07T11:48:01.068Z,999.90
2018-11-07T11:50:28.946Z,999.90
2018-11-07T11:52:56.807Z,999.90
2018-11-07T11:55:24.708Z,999.90
2018-11-07T11:57:52.573Z,999.90
2018-11-07T12:00:21.171Z,999.90
2018-11-07T12:02:49.238Z,999.90
2018-11-07T12:05:18.055Z,999.90
2018-11-07T12:07:45.910Z,999.90
2018-11-07T12:10:22.162Z,999.90
2018-11-07T12:12:51.211Z,999.90
2018-11-07T12:15:20.142Z,999.90
2018-11-07T12:17:47.935Z,999.90
2018-11-07T12:20:15.835Z,999.90
2018-11-07T12:22:43.719Z,999.90
2018-11-07T12:25:12.745Z,999.90
2018-11-07T12:27:41.215Z,999.90
2018-11-07T12:30:10.116Z,999.90
2018-11-07T12:32:38.008Z,999.90
2018-11-07T12:35:05.952Z,999.90
2018-11-07T12:37:33.796Z,999.90
2018-11-07T12:40:01.660Z,999.90
2018-11-07T12:42:29.511Z,999.90
2018-11-07T12:44:57.402Z,999.90
2018-11-07T12:47:25.304Z,999.90
2018-11-07T12:49:53.256Z,999.90
2018-11-07T12:52:21.006Z,999.90
2018-11-07T12:54:48.854Z,999.90
2018-11-07T12:57:16.857Z,999.90
2018-11-07T12:59:44.689Z,999.90
2018-11-07T13:02:12.536Z,999.90
2018-11-07T13:04:40.389Z,999.90
2018-11-07T13:07:08.233Z,999.90
2018-11-07T13:09:36.112Z,999.90
2018-11-07T13:12:03.996Z,999.90
2018-11-07T13:14:31.867Z,999.90
2018-11-07T13:17:00.201Z,999.90
2018-11-07T13:19:28.215Z,999.90
2018-11-07T13:21:56.231Z,999.90
2018-11-07T13:24:24.102Z,999.90
2018-11-07T13:26:51.980Z,999.90
2018-11-07T13:29:19.827Z,999.90
2018-11-07T13:31:47.805Z,999.90
2018-11-07T13:34:15.681Z,999.90
2018-11-07T13:36:43.804Z,999.90
2018-11-07T13:39:13.074Z,999.90
2018-11-07T13:41:41.006Z,999.90
2018-11-07T13:44:08.883Z,999.90
2018-11-07T13:46:36.759Z,999.90
2018-11-07T13:49:05.049Z,999.90
2018-11-07T13:51:32.912Z,999.90
2018-11-07T13:54:00.766Z,999.90
2018-11-07T13:56:28.663Z,994.77
2018-11-07T13:58:56.638Z,996.67
2018-11-07T14:01:24.504Z,977.07
2018-11-07T14:03:52.375Z,972.40
2018-11-07T14:06:20.403Z,989.43
2018-11-07T14:08:48.394Z,948.47
2018-11-07T14:11:16.338Z,960.30
2018-11-07T14:13:44.178Z,931.63
2018-11-07T14:16:12.052Z,961.70
2018-11-07T14:18:39.877Z,937.23
2018-11-07T14:21:07.734Z,949.50
2018-11-07T14:23:35.588Z,959.97
2018-11-07T14:26:03.452Z,952.70
2018-11-07T14:28:31.414Z,955.87
2018-11-07T14:30:59.182Z,920.47
2018-11-07T14:33:27.080Z,968.03
2018-11-07T14:35:55.020Z,997.50
2018-11-07T14:39:47.347Z,995.23
2018-11-07T14:42:15.221Z,999.90
2018-11-07T14:44:43.108Z,985.17
2018-11-07T14:47:11.099Z,985.80
2018-11-07T14:49:39.054Z,961.20
2018-11-07T14:52:07.039Z,911.97
2018-11-07T14:54:34.978Z,915.33
2018-11-07T14:57:02.947Z,912.03
2018-11-07T14:59:30.801Z,703.73
2018-11-07T15:01:58.651Z,889.60
2018-11-07T15:04:26.592Z,927.93
2018-11-07T15:06:54.514Z,932.67
2018-11-07T15:09:22.378Z,927.87
2018-11-07T15:11:50.340Z,941.20
2018-11-07T15:14:18.128Z,931.23
2018-11-07T15:16:46.091Z,970.60
2018-11-07T15:19:14.080Z,969.80
2018-11-07T15:21:41.943Z,960.17
2018-11-07T15:24:09.787Z,958.10
2018-11-07T15:26:41.293Z,945.90
2018-11-07T15:29:09.323Z,978.50
2018-11-07T15:31:40.275Z,949.23
2018-11-07T15:34:18.589Z,912.27
2018-11-07T15:36:55.252Z,949.50
2018-11-07T15:39:31.363Z,949.57
2018-11-07T15:41:59.686Z,947.77
2018-11-07T15:44:27.687Z,937.67
2018-11-07T15:46:55.529Z,932.30
2018-11-07T15:49:32.867Z,948.13
2018-11-07T15:52:01.197Z,992.03
2018-11-07T15:54:42.507Z,999.90
2018-11-07T15:57:10.996Z,999.13
2018-11-07T15:59:38.847Z,954.07
2018-11-07T16:02:06.698Z,919.80
2018-11-07T16:04:34.554Z,939.93
2018-11-07T16:07:02.515Z,925.10
2018-11-07T16:09:30.435Z,924.20
2018-11-07T16:11:58.385Z,941.47
2018-11-07T16:14:26.245Z,928.10
2018-11-07T16:16:59.460Z,926.33
2018-11-07T16:19:30.580Z,926.50
2018-11-07T16:22:15.095Z,896.70
2018-11-07T16:24:43.691Z,886.93
2018-11-07T16:27:23.559Z,908.07
2018-11-07T16:29:57.324Z,876.00
2018-11-07T16:32:35.012Z,901.47
2018-11-07T16:35:15.369Z,918.83
2018-11-07T16:37:51.748Z,938.13
2018-11-07T16:40:24.072Z,912.87
2018-11-07T16:42:52.072Z,891.67
2018-11-07T16:45:19.951Z,896.87
2018-11-07T16:47:47.917Z,864.47
2018-11-07T16:50:22.533Z,894.90
2018-11-07T16:52:50.435Z,890.57
2018-11-07T16:55:18.278Z,897.03
2018-11-07T16:57:46.152Z,927.87
2018-11-07T17:00:16.342Z,887.77
2018-11-07T17:02:44.881Z,905.23
2018-11-07T17:05:13.524Z,925.47
2018-11-07T17:07:41.456Z,896.17
2018-11-07T17:10:10.182Z,906.97
2018-11-07T17:12:38.080Z,910.97
2018-11-07T17:15:15.976Z,881.43
2018-11-07T17:17:44.212Z,899.03
2018-11-07T17:20:13.418Z,917.63
2018-11-07T17:22:46.324Z,867.77
2018-11-07T17:25:21.755Z,871.43
2018-11-07T17:27:53.438Z,882.83
2018-11-07T17:30:21.683Z,863.27
2018-11-07T17:32:49.567Z,893.37
2018-11-07T17:35:18.299Z,899.63
2018-11-07T17:37:46.524Z,881.90
2018-11-07T17:40:16.303Z,883.17
2018-11-07T17:42:44.510Z,892.70
2018-11-07T17:45:13.788Z,884.87
2018-11-07T17:47:42.101Z,888.13
2018-11-07T17:50:11.215Z,903.97
2018-11-07T17:52:39.345Z,875.83
2018-11-07T17:55:07.383Z,835.33
2018-11-07T17:57:35.277Z,912.77
2018-11-07T18:00:03.244Z,870.80
2018-11-07T18:02:31.520Z,875.30
2018-11-07T18:04:59.392Z,923.33
2018-11-07T18:07:27.254Z,927.97
2018-11-07T18:09:55.159Z,999.90
2018-11-07T18:12:22.959Z,999.90
2018-11-07T18:14:50.822Z,918.80
2018-11-07T18:17:18.796Z,997.13
2018-11-07T18:19:47.559Z,981.27
2018-11-07T18:22:16.689Z,995.60
2018-11-07T18:24:45.326Z,999.90
2018-11-07T18:27:13.896Z,998.57
2018-11-07T18:29:42.756Z,949.80
2018-11-07T18:32:11.902Z,999.90
2018-11-07T18:34:40.864Z,996.70
2018-11-07T18:37:09.338Z,977.53
2018-11-07T18:39:39.323Z,977.47
2018-11-07T18:42:08.748Z,964.73
2018-11-07T18:44:37.713Z,983.47
2018-11-07T18:47:06.420Z,914.53
2018-11-07T18:49:34.521Z,917.93
2018-11-07T18:52:03.113Z,956.57
2018-11-07T18:54:32.104Z,962.77
2018-11-07T18:57:00.547Z,986.40
2018-11-07T18:59:28.740Z,999.90
2018-11-07T19:01:57.802Z,993.63
2018-11-07T19:04:31.309Z,999.90
2018-11-07T19:07:03.794Z,999.90
2018-11-07T19:09:32.271Z,999.90
2018-11-07T19:12:00.900Z,999.90
2018-11-07T19:14:29.284Z,989.63
2018-11-07T19:16:57.843Z,999.90
2018-11-07T19:19:26.600Z,987.33
2018-11-07T19:21:55.754Z,999.90
2018-11-07T19:24:24.573Z,999.90
2018-11-07T19:26:54.414Z,983.80
2018-11-07T19:29:23.685Z,965.73
2018-11-07T19:31:55.928Z,999.90
2018-11-07T19:34:25.716Z,999.90
2018-11-07T19:36:55.967Z,999.90
2018-11-07T19:39:25.134Z,999.90
2018-11-07T19:41:53.806Z,999.50
2018-11-07T19:44:23.455Z,999.90
2018-11-07T19:46:51.906Z,999.90
2018-11-07T19:49:20.509Z,999.90
2018-11-07T19:51:48.983Z,977.43
2018-11-07T19:54:21.103Z,998.83
2018-11-07T19:56:49.340Z,999.90
2018-11-07T19:59:17.209Z,999.90
2018-11-07T20:01:45.060Z,999.90
2018-11-07T20:04:12.993Z,999.90
2018-11-07T20:06:40.853Z,958.80
2018-11-07T20:09:09.018Z,920.37
2018-11-07T20:11:36.970Z,911.63
2018-11-07T20:14:05.051Z,900.87
2018-11-07T20:16:32.976Z,936.87
2018-11-07T20:19:01.010Z,905.20
2018-11-07T20:21:28.873Z,904.97
2018-11-07T20:23:57.531Z,969.97
2018-11-07T20:26:25.501Z,896.27
2018-11-07T20:28:53.453Z,854.57
2018-11-07T20:31:21.344Z,883.53
2018-11-07T20:33:49.187Z,892.70
2018-11-07T20:36:17.255Z,827.63
2018-11-07T20:38:45.011Z,877.77
2018-11-07T20:41:12.889Z,786.33
2018-11-07T20:43:40.816Z,873.83
2018-11-07T20:46:08.662Z,791.67
2018-11-07T20:48:36.793Z,805.27
2018-11-07T20:51:04.825Z,830.00
2018-11-07T20:53:32.698Z,866.00
2018-11-07T20:56:00.666Z,781.67
2018-11-07T20:58:28.523Z,770.57
2018-11-07T21:00:56.419Z,726.43
2018-11-07T21:03:24.270Z,715.53
2018-11-07T21:05:52.187Z,911.00
2018-11-07T21:08:20.171Z,692.53
2018-11-07T21:10:48.036Z,784.30
2018-11-07T21:13:17.434Z,701.17
2018-11-07T21:15:45.854Z,722.57
2018-11-07T21:18:13.801Z,910.00
2018-11-07T21:20:41.724Z,761.80
2018-11-07T21:23:09.645Z,763.90
2018-11-07T21:25:37.489Z,898.53
2018-11-07T21:28:05.346Z,999.90
2018-11-07T21:30:33.212Z,999.90
2018-11-07T21:33:01.103Z,866.73
2018-11-07T21:35:28.971Z,999.90
2018-11-07T21:37:56.843Z,877.20
2018-11-07T21:40:24.709Z,819.33
2018-11-07T21:42:52.751Z,999.90
2018-11-07T21:45:20.592Z,997.03
2018-11-07T21:47:48.510Z,913.83
2018-11-07T21:50:16.797Z,729.00
2018-11-07T21:52:44.729Z,912.33
2018-11-07T21:55:12.566Z,913.63
2018-11-07T21:57:40.485Z,922.07
2018-11-07T22:00:09.142Z,846.70
2018-11-07T22:02:37.023Z,987.50
2018-11-07T22:05:05.230Z,999.90
2018-11-07T22:07:33.094Z,999.90
2018-11-07T22:10:00.964Z,973.63
2018-11-07T22:12:28.808Z,977.93
2018-11-07T22:14:56.697Z,991.50
2018-11-07T22:17:24.573Z,890.10
2018-11-07T22:19:52.454Z,980.30
2018-11-07T22:22:20.381Z,895.63
2018-11-07T22:24:48.225Z,953.80
2018-11-07T22:27:16.121Z,969.50
2018-11-07T22:29:43.963Z,883.50
2018-11-07T22:32:11.840Z,952.17
2018-11-07T22:34:39.703Z,987.20
2018-11-07T22:37:07.611Z,905.83
2018-11-07T22:39:35.467Z,874.80
2018-11-07T22:42:03.319Z,828.37
2018-11-07T22:44:31.256Z,919.57
2018-11-07T22:46:59.124Z,985.97
2018-11-07T22:49:27.051Z,949.37
2018-11-07T22:51:54.967Z,999.90
2018-11-07T22:54:22.823Z,984.23
2018-11-07T22:56:50.682Z,968.10
2018-11-07T22:59:18.606Z,999.90
2018-11-07T23:01:46.733Z,994.67
2018-11-07T23:04:14.708Z,994.17
2018-11-07T23:06:42.611Z,975.83
2018-11-07T23:09:11.831Z,995.50
2018-11-07T23:11:41.800Z,999.90
2018-11-07T23:14:11.311Z,999.90
2018-11-07T23:16:39.375Z,999.90
2018-11-07T23:19:07.534Z,996.07
2018-11-07T23:21:35.565Z,999.90
2018-11-07T23:24:03.527Z,983.73
2018-11-07T23:26:31.594Z,989.20
2018-11-07T23:28:59.476Z,992.93
2018-11-07T23:31:27.588Z,999.90
2018-11-07T23:33:55.489Z,998.83
2018-11-07T23:36:23.362Z,999.90
2018-11-07T23:38:51.604Z,963.53
2018-11-07T23:41:19.531Z,995.77
2018-11-07T23:43:47.467Z,998.67
2018-11-07T23:46:15.302Z,967.27
2018-11-07T23:48:43.154Z,975.20
2018-11-07T23:51:10.989Z,945.80
2018-11-07T23:53:38.833Z,999.90
2018-11-07T23:56:06.678Z,999.90
2018-11-07T23:58:34.531Z,999.90
